sensor_id;sensor_type;location;lat;lon;timestamp;P1;durP1;ratioP1;P2;durP2;ratioP2
23232;SDS011;11785;49.500;8.288;2024-03-02T00:00:13;22.35;;;13.85;;
23232;SDS011;11785;49.500;8.288;2024-03-02T00:02:45;22.42;;;13.68;;
23232;SDS011;11785;49.500;8.288;2024-03-02T00:05:12;19.58;;;13.48;;
23232;SDS011;11785;49.500;8.288;2024-03-02T00:07:43;25.35;;;15.30;;
23232;SDS011;11785;49.500;8.288;2024-03-02T00:10:10;22.23;;;14.38;;
23232;SDS011;11785;49.500;8.288;2024-03-02T00:12:40;24.85;;;15.13;;
23232;SDS011;11785;49.500;8.288;2024-03-02T00:15:06;24.55;;;14.60;;
23232;SDS011;11785;49.500;8.288;2024-03-02T00:17:46;22.75;;;14.48;;
23232;SDS011;11785;49.500;8.288;2024-03-02T00:20:21;23.63;;;15.55;;
23232;SDS011;11785;49.500;8.288;2024-03-02T00:22:48;26.88;;;16.35;;
23232;SDS011;11785;49.500;8.288;2024-03-02T00:25:14;25.23;;;15.63;;
23232;SDS011;11785;49.500;8.288;2024-03-02T00:27:40;28.55;;;16.15;;
23232;SDS011;11785;49.500;8.288;2024-03-02T00:30:12;28.80;;;15.80;;
23232;SDS011;11785;49.500;8.288;2024-03-02T00:33:06;28.85;;;16.88;;
23232;SDS011;11785;49.500;8.288;2024-03-02T00:35:32;27.02;;;15.88;;
23232;SDS011;11785;49.500;8.288;2024-03-02T00:37:58;26.20;;;15.95;;
23232;SDS011;11785;49.500;8.288;2024-03-02T00:40:28;28.58;;;16.02;;
23232;SDS011;11785;49.500;8.288;2024-03-02T00:42:54;29.52;;;17.27;;
23232;SDS011;11785;49.500;8.288;2024-03-02T00:45:21;27.92;;;16.55;;
23232;SDS011;11785;49.500;8.288;2024-03-02T00:47:46;26.27;;;16.38;;
23232;SDS011;11785;49.500;8.288;2024-03-02T00:50:12;28.25;;;17.30;;
23232;SDS011;11785;49.500;8.288;2024-03-02T00:52:39;25.10;;;15.70;;
23232;SDS011;11785;49.500;8.288;2024-03-02T00:55:06;27.65;;;16.25;;
23232;SDS011;11785;49.500;8.288;2024-03-02T00:57:33;27.38;;;15.85;;
23232;SDS011;11785;49.500;8.288;2024-03-02T00:59:59;29.25;;;15.90;;
23232;SDS011;11785;49.500;8.288;2024-03-02T01:02:25;27.27;;;16.60;;
23232;SDS011;11785;49.500;8.288;2024-03-02T01:04:51;26.55;;;16.40;;
23232;SDS011;11785;49.500;8.288;2024-03-02T01:07:17;25.63;;;15.75;;
23232;SDS011;11785;49.500;8.288;2024-03-02T01:09:42;27.60;;;16.60;;
23232;SDS011;11785;49.500;8.288;2024-03-02T01:12:08;30.98;;;17.50;;
23232;SDS011;11785;49.500;8.288;2024-03-02T01:14:34;28.58;;;16.23;;
23232;SDS011;11785;49.500;8.288;2024-03-02T01:17:00;28.27;;;16.52;;
23232;SDS011;11785;49.500;8.288;2024-03-02T01:19:28;27.20;;;17.33;;
23232;SDS011;11785;49.500;8.288;2024-03-02T01:21:54;29.40;;;16.60;;
23232;SDS011;11785;49.500;8.288;2024-03-02T01:24:19;28.70;;;16.08;;
23232;SDS011;11785;49.500;8.288;2024-03-02T01:26:45;25.27;;;16.23;;
23232;SDS011;11785;49.500;8.288;2024-03-02T01:29:10;28.73;;;16.67;;
23232;SDS011;11785;49.500;8.288;2024-03-02T01:31:36;28.45;;;17.38;;
23232;SDS011;11785;49.500;8.288;2024-03-02T01:34:02;25.42;;;17.27;;
23232;SDS011;11785;49.500;8.288;2024-03-02T01:36:27;31.35;;;17.63;;
23232;SDS011;11785;49.500;8.288;2024-03-02T01:38:53;28.67;;;17.75;;
23232;SDS011;11785;49.500;8.288;2024-03-02T01:41:18;32.08;;;17.20;;
23232;SDS011;11785;49.500;8.288;2024-03-02T01:43:44;29.55;;;17.50;;
23232;SDS011;11785;49.500;8.288;2024-03-02T01:46:09;33.25;;;16.77;;
23232;SDS011;11785;49.500;8.288;2024-03-02T01:48:35;27.98;;;17.48;;
23232;SDS011;11785;49.500;8.288;2024-03-02T01:51:00;32.42;;;19.63;;
23232;SDS011;11785;49.500;8.288;2024-03-02T01:53:26;28.83;;;17.75;;
23232;SDS011;11785;49.500;8.288;2024-03-02T01:55:53;27.17;;;16.95;;
23232;SDS011;11785;49.500;8.288;2024-03-02T01:58:18;29.48;;;18.35;;
23232;SDS011;11785;49.500;8.288;2024-03-02T02:00:44;30.00;;;18.55;;
23232;SDS011;11785;49.500;8.288;2024-03-02T02:03:10;29.67;;;17.85;;
23232;SDS011;11785;49.500;8.288;2024-03-02T02:05:35;26.77;;;16.52;;
23232;SDS011;11785;49.500;8.288;2024-03-02T02:08:01;28.90;;;17.67;;
23232;SDS011;11785;49.500;8.288;2024-03-02T02:10:27;27.85;;;16.30;;
23232;SDS011;11785;49.500;8.288;2024-03-02T02:12:52;27.20;;;17.52;;
23232;SDS011;11785;49.500;8.288;2024-03-02T02:15:22;28.15;;;17.08;;
23232;SDS011;11785;49.500;8.288;2024-03-02T02:20:18;28.75;;;16.95;;
23232;SDS011;11785;49.500;8.288;2024-03-02T02:23:00;27.75;;;16.80;;
23232;SDS011;11785;49.500;8.288;2024-03-02T02:25:27;31.13;;;17.75;;
23232;SDS011;11785;49.500;8.288;2024-03-02T02:27:53;30.50;;;18.70;;
23232;SDS011;11785;49.500;8.288;2024-03-02T02:30:20;30.50;;;18.33;;
23232;SDS011;11785;49.500;8.288;2024-03-02T02:32:47;31.85;;;19.83;;
23232;SDS011;11785;49.500;8.288;2024-03-02T02:35:13;30.05;;;17.98;;
23232;SDS011;11785;49.500;8.288;2024-03-02T02:37:38;33.25;;;18.40;;
23232;SDS011;11785;49.500;8.288;2024-03-02T02:40:04;31.23;;;18.45;;
23232;SDS011;11785;49.500;8.288;2024-03-02T02:42:30;31.10;;;17.42;;
23232;SDS011;11785;49.500;8.288;2024-03-02T02:44:56;32.13;;;17.77;;
23232;SDS011;11785;49.500;8.288;2024-03-02T02:47:21;29.20;;;17.52;;
23232;SDS011;11785;49.500;8.288;2024-03-02T02:49:47;29.55;;;17.63;;
23232;SDS011;11785;49.500;8.288;2024-03-02T02:52:13;29.33;;;17.77;;
23232;SDS011;11785;49.500;8.288;2024-03-02T02:54:38;27.85;;;17.33;;
23232;SDS011;11785;49.500;8.288;2024-03-02T02:57:04;26.70;;;16.60;;
23232;SDS011;11785;49.500;8.288;2024-03-02T02:59:29;26.90;;;17.55;;
23232;SDS011;11785;49.500;8.288;2024-03-02T03:01:55;25.73;;;16.48;;
23232;SDS011;11785;49.500;8.288;2024-03-02T03:04:20;30.52;;;17.42;;
23232;SDS011;11785;49.500;8.288;2024-03-02T03:06:46;27.23;;;17.27;;
23232;SDS011;11785;49.500;8.288;2024-03-02T03:09:11;28.77;;;17.75;;
23232;SDS011;11785;49.500;8.288;2024-03-02T03:11:37;30.85;;;18.30;;
23232;SDS011;11785;49.500;8.288;2024-03-02T03:14:02;35.45;;;19.15;;
23232;SDS011;11785;49.500;8.288;2024-03-02T03:16:29;30.75;;;19.42;;
23232;SDS011;11785;49.500;8.288;2024-03-02T03:18:55;31.70;;;18.83;;
23232;SDS011;11785;49.500;8.288;2024-03-02T03:21:21;28.55;;;18.17;;
23232;SDS011;11785;49.500;8.288;2024-03-02T03:23:46;30.80;;;19.10;;
23232;SDS011;11785;49.500;8.288;2024-03-02T03:26:12;30.60;;;18.30;;
23232;SDS011;11785;49.500;8.288;2024-03-02T03:28:38;35.42;;;19.67;;
23232;SDS011;11785;49.500;8.288;2024-03-02T03:31:03;37.90;;;21.60;;
23232;SDS011;11785;49.500;8.288;2024-03-02T03:33:29;36.10;;;20.73;;
23232;SDS011;11785;49.500;8.288;2024-03-02T03:35:55;40.63;;;21.73;;
23232;SDS011;11785;49.500;8.288;2024-03-02T03:38:20;37.38;;;21.88;;
23232;SDS011;11785;49.500;8.288;2024-03-02T03:40:46;34.08;;;20.50;;
23232;SDS011;11785;49.500;8.288;2024-03-02T03:43:12;33.72;;;20.48;;
23232;SDS011;11785;49.500;8.288;2024-03-02T03:45:38;35.15;;;20.00;;
23232;SDS011;11785;49.500;8.288;2024-03-02T03:48:03;32.03;;;18.75;;
23232;SDS011;11785;49.500;8.288;2024-03-02T03:50:29;33.67;;;18.40;;
23232;SDS011;11785;49.500;8.288;2024-03-02T03:52:55;30.80;;;18.05;;
23232;SDS011;11785;49.500;8.288;2024-03-02T03:55:20;28.45;;;17.92;;
23232;SDS011;11785;49.500;8.288;2024-03-02T03:57:46;31.17;;;17.50;;
23232;SDS011;11785;49.500;8.288;2024-03-02T04:00:11;28.48;;;17.48;;
23232;SDS011;11785;49.500;8.288;2024-03-02T04:02:38;26.38;;;16.48;;
23232;SDS011;11785;49.500;8.288;2024-03-02T04:05:04;29.42;;;15.55;;
23232;SDS011;11785;49.500;8.288;2024-03-02T04:07:33;25.95;;;15.95;;
23232;SDS011;11785;49.500;8.288;2024-03-02T04:10:06;24.65;;;15.57;;
23232;SDS011;11785;49.500;8.288;2024-03-02T04:12:33;32.30;;;17.80;;
23232;SDS011;11785;49.500;8.288;2024-03-02T04:14:59;33.60;;;17.55;;
23232;SDS011;11785;49.500;8.288;2024-03-02T04:17:26;28.17;;;16.40;;
23232;SDS011;11785;49.500;8.288;2024-03-02T04:19:52;36.03;;;19.65;;
23232;SDS011;11785;49.500;8.288;2024-03-02T04:22:17;29.98;;;18.23;;
23232;SDS011;11785;49.500;8.288;2024-03-02T04:24:43;37.45;;;20.83;;
23232;SDS011;11785;49.500;8.288;2024-03-02T04:27:08;34.83;;;19.10;;
23232;SDS011;11785;49.500;8.288;2024-03-02T04:29:34;33.05;;;19.80;;
23232;SDS011;11785;49.500;8.288;2024-03-02T04:31:59;33.58;;;20.30;;
23232;SDS011;11785;49.500;8.288;2024-03-02T04:34:25;26.83;;;17.30;;
23232;SDS011;11785;49.500;8.288;2024-03-02T04:36:50;33.40;;;18.83;;
23232;SDS011;11785;49.500;8.288;2024-03-02T04:39:16;32.70;;;19.30;;
23232;SDS011;11785;49.500;8.288;2024-03-02T04:41:42;31.33;;;18.40;;
23232;SDS011;11785;49.500;8.288;2024-03-02T04:44:07;33.38;;;18.52;;
23232;SDS011;11785;49.500;8.288;2024-03-02T04:46:33;32.67;;;18.25;;
23232;SDS011;11785;49.500;8.288;2024-03-02T04:48:58;28.00;;;18.33;;
23232;SDS011;11785;49.500;8.288;2024-03-02T04:51:24;33.50;;;18.73;;
23232;SDS011;11785;49.500;8.288;2024-03-02T04:53:49;32.03;;;18.75;;
23232;SDS011;11785;49.500;8.288;2024-03-02T04:56:15;31.17;;;19.65;;
23232;SDS011;11785;49.500;8.288;2024-03-02T04:58:59;33.28;;;18.58;;
23232;SDS011;11785;49.500;8.288;2024-03-02T05:01:24;32.80;;;18.25;;
23232;SDS011;11785;49.500;8.288;2024-03-02T05:03:50;29.52;;;17.95;;
23232;SDS011;11785;49.500;8.288;2024-03-02T05:06:15;32.40;;;18.58;;
23232;SDS011;11785;49.500;8.288;2024-03-02T05:08:41;29.70;;;18.70;;
23232;SDS011;11785;49.500;8.288;2024-03-02T05:11:07;27.40;;;17.90;;
23232;SDS011;11785;49.500;8.288;2024-03-02T05:14:05;30.00;;;17.15;;
23232;SDS011;11785;49.500;8.288;2024-03-02T05:16:33;29.30;;;17.08;;
23232;SDS011;11785;49.500;8.288;2024-03-02T05:19:06;27.92;;;17.50;;
23232;SDS011;11785;49.500;8.288;2024-03-02T05:21:32;27.52;;;16.00;;
23232;SDS011;11785;49.500;8.288;2024-03-02T05:23:58;27.92;;;16.00;;
23232;SDS011;11785;49.500;8.288;2024-03-02T05:26:24;23.60;;;15.10;;
23232;SDS011;11785;49.500;8.288;2024-03-02T05:28:50;22.67;;;14.95;;
23232;SDS011;11785;49.500;8.288;2024-03-02T05:31:15;23.17;;;13.80;;
23232;SDS011;11785;49.500;8.288;2024-03-02T05:33:41;21.48;;;14.65;;
23232;SDS011;11785;49.500;8.288;2024-03-02T05:36:07;20.38;;;14.05;;
23232;SDS011;11785;49.500;8.288;2024-03-02T05:38:36;21.48;;;14.10;;
23232;SDS011;11785;49.500;8.288;2024-03-02T05:41:02;22.23;;;14.45;;
23232;SDS011;11785;49.500;8.288;2024-03-02T05:43:28;21.42;;;13.55;;
23232;SDS011;11785;49.500;8.288;2024-03-02T05:45:54;18.70;;;12.10;;
23232;SDS011;11785;49.500;8.288;2024-03-02T05:48:19;22.00;;;13.32;;
23232;SDS011;11785;49.500;8.288;2024-03-02T05:50:45;22.10;;;12.82;;
23232;SDS011;11785;49.500;8.288;2024-03-02T05:53:10;19.02;;;11.85;;
23232;SDS011;11785;49.500;8.288;2024-03-02T05:55:36;16.83;;;11.88;;
23232;SDS011;11785;49.500;8.288;2024-03-02T05:58:02;19.25;;;12.65;;
23232;SDS011;11785;49.500;8.288;2024-03-02T06:00:52;20.02;;;12.95;;
23232;SDS011;11785;49.500;8.288;2024-03-02T06:03:19;18.20;;;12.27;;
23232;SDS011;11785;49.500;8.288;2024-03-02T06:05:45;19.48;;;11.45;;
23232;SDS011;11785;49.500;8.288;2024-03-02T06:08:10;22.00;;;12.80;;
23232;SDS011;11785;49.500;8.288;2024-03-02T06:10:36;19.10;;;11.25;;
23232;SDS011;11785;49.500;8.288;2024-03-02T06:13:01;18.30;;;12.07;;
23232;SDS011;11785;49.500;8.288;2024-03-02T06:15:27;18.23;;;12.77;;
23232;SDS011;11785;49.500;8.288;2024-03-02T06:17:52;23.42;;;12.75;;
23232;SDS011;11785;49.500;8.288;2024-03-02T06:20:18;18.00;;;11.85;;
23232;SDS011;11785;49.500;8.288;2024-03-02T06:22:43;17.88;;;11.65;;
23232;SDS011;11785;49.500;8.288;2024-03-02T06:25:12;19.45;;;12.43;;
23232;SDS011;11785;49.500;8.288;2024-03-02T06:27:38;18.42;;;12.18;;
23232;SDS011;11785;49.500;8.288;2024-03-02T06:30:04;16.25;;;10.95;;
23232;SDS011;11785;49.500;8.288;2024-03-02T06:32:31;16.65;;;10.70;;
23232;SDS011;11785;49.500;8.288;2024-03-02T06:34:56;20.00;;;11.25;;
23232;SDS011;11785;49.500;8.288;2024-03-02T06:37:22;17.40;;;11.73;;
23232;SDS011;11785;49.500;8.288;2024-03-02T06:39:47;18.48;;;11.80;;
23232;SDS011;11785;49.500;8.288;2024-03-02T06:42:13;16.33;;;10.77;;
23232;SDS011;11785;49.500;8.288;2024-03-02T06:44:41;17.08;;;11.63;;
23232;SDS011;11785;49.500;8.288;2024-03-02T06:47:06;17.75;;;11.48;;
23232;SDS011;11785;49.500;8.288;2024-03-02T06:49:32;22.58;;;12.20;;
23232;SDS011;11785;49.500;8.288;2024-03-02T06:51:59;15.75;;;11.15;;
23232;SDS011;11785;49.500;8.288;2024-03-02T06:54:24;19.27;;;10.90;;
23232;SDS011;11785;49.500;8.288;2024-03-02T06:56:50;20.27;;;11.40;;
23232;SDS011;11785;49.500;8.288;2024-03-02T06:59:16;16.35;;;11.00;;
23232;SDS011;11785;49.500;8.288;2024-03-02T07:01:44;18.90;;;12.07;;
23232;SDS011;11785;49.500;8.288;2024-03-02T07:04:10;20.98;;;12.80;;
23232;SDS011;11785;49.500;8.288;2024-03-02T07:06:35;28.35;;;15.90;;
23232;SDS011;11785;49.500;8.288;2024-03-02T07:09:01;19.88;;;12.23;;
23232;SDS011;11785;49.500;8.288;2024-03-02T07:11:26;16.25;;;10.95;;
23232;SDS011;11785;49.500;8.288;2024-03-02T07:13:52;13.70;;;9.95;;
23232;SDS011;11785;49.500;8.288;2024-03-02T07:16:17;16.05;;;9.80;;
23232;SDS011;11785;49.500;8.288;2024-03-02T07:18:45;20.45;;;13.60;;
23232;SDS011;11785;49.500;8.288;2024-03-02T07:21:16;18.52;;;11.18;;
23232;SDS011;11785;49.500;8.288;2024-03-02T07:23:42;16.13;;;10.40;;
23232;SDS011;11785;49.500;8.288;2024-03-02T07:26:07;15.40;;;9.88;;
23232;SDS011;11785;49.500;8.288;2024-03-02T07:28:33;15.20;;;9.82;;
23232;SDS011;11785;49.500;8.288;2024-03-02T07:30:59;15.32;;;10.40;;
23232;SDS011;11785;49.500;8.288;2024-03-02T07:33:29;16.77;;;11.10;;
23232;SDS011;11785;49.500;8.288;2024-03-02T07:35:58;15.90;;;10.35;;
23232;SDS011;11785;49.500;8.288;2024-03-02T07:38:25;16.52;;;9.43;;
23232;SDS011;11785;49.500;8.288;2024-03-02T07:40:51;16.65;;;11.38;;
23232;SDS011;11785;49.500;8.288;2024-03-02T07:43:18;17.17;;;10.75;;
23232;SDS011;11785;49.500;8.288;2024-03-02T07:45:44;25.88;;;15.73;;
23232;SDS011;11785;49.500;8.288;2024-03-02T07:48:10;31.58;;;17.33;;
23232;SDS011;11785;49.500;8.288;2024-03-02T07:50:35;23.23;;;14.32;;
23232;SDS011;11785;49.500;8.288;2024-03-02T07:53:02;18.88;;;11.07;;
23232;SDS011;11785;49.500;8.288;2024-03-02T07:55:28;15.90;;;9.77;;
23232;SDS011;11785;49.500;8.288;2024-03-02T07:57:55;20.05;;;10.85;;
23232;SDS011;11785;49.500;8.288;2024-03-02T08:00:21;14.05;;;9.45;;
23232;SDS011;11785;49.500;8.288;2024-03-02T08:02:47;16.80;;;9.60;;
23232;SDS011;11785;49.500;8.288;2024-03-02T08:05:13;21.90;;;10.70;;
23232;SDS011;11785;49.500;8.288;2024-03-02T08:07:39;24.77;;;11.20;;
23232;SDS011;11785;49.500;8.288;2024-03-02T08:10:06;17.95;;;10.40;;
23232;SDS011;11785;49.500;8.288;2024-03-02T08:12:32;17.92;;;10.27;;
23232;SDS011;11785;49.500;8.288;2024-03-02T08:14:57;20.77;;;10.95;;
23232;SDS011;11785;49.500;8.288;2024-03-02T08:17:23;19.23;;;10.43;;
23232;SDS011;11785;49.500;8.288;2024-03-02T08:19:48;13.35;;;9.60;;
23232;SDS011;11785;49.500;8.288;2024-03-02T08:22:14;16.55;;;10.52;;
23232;SDS011;11785;49.500;8.288;2024-03-02T08:24:40;18.13;;;11.00;;
23232;SDS011;11785;49.500;8.288;2024-03-02T08:27:06;17.35;;;10.35;;
23232;SDS011;11785;49.500;8.288;2024-03-02T08:29:32;17.83;;;10.82;;
23232;SDS011;11785;49.500;8.288;2024-03-02T08:31:57;16.08;;;10.18;;
23232;SDS011;11785;49.500;8.288;2024-03-02T08:34:23;15.18;;;9.93;;
23232;SDS011;11785;49.500;8.288;2024-03-02T08:36:48;15.48;;;10.15;;
23232;SDS011;11785;49.500;8.288;2024-03-02T08:39:14;14.73;;;9.98;;
23232;SDS011;11785;49.500;8.288;2024-03-02T08:41:46;15.80;;;10.70;;
23232;SDS011;11785;49.500;8.288;2024-03-02T08:44:12;17.85;;;10.25;;
23232;SDS011;11785;49.500;8.288;2024-03-02T08:46:39;16.42;;;10.77;;
23232;SDS011;11785;49.500;8.288;2024-03-02T08:49:05;18.83;;;11.35;;
23232;SDS011;11785;49.500;8.288;2024-03-02T08:51:30;19.45;;;10.25;;
23232;SDS011;11785;49.500;8.288;2024-03-02T08:53:56;18.88;;;10.50;;
23232;SDS011;11785;49.500;8.288;2024-03-02T08:56:23;18.33;;;10.32;;
23232;SDS011;11785;49.500;8.288;2024-03-02T08:58:49;13.07;;;7.80;;
23232;SDS011;11785;49.500;8.288;2024-03-02T09:01:17;14.32;;;7.63;;
23232;SDS011;11785;49.500;8.288;2024-03-02T09:03:44;9.32;;;6.70;;
23232;SDS011;11785;49.500;8.288;2024-03-02T09:06:11;11.50;;;7.00;;
23232;SDS011;11785;49.500;8.288;2024-03-02T09:08:37;11.07;;;7.55;;
23232;SDS011;11785;49.500;8.288;2024-03-02T09:11:04;11.20;;;7.60;;
23232;SDS011;11785;49.500;8.288;2024-03-02T09:13:31;9.68;;;6.45;;
23232;SDS011;11785;49.500;8.288;2024-03-02T09:15:57;12.13;;;7.45;;
23232;SDS011;11785;49.500;8.288;2024-03-02T09:18:23;11.60;;;7.47;;
23232;SDS011;11785;49.500;8.288;2024-03-02T09:20:48;9.90;;;7.70;;
23232;SDS011;11785;49.500;8.288;2024-03-02T09:23:14;11.73;;;8.00;;
23232;SDS011;11785;49.500;8.288;2024-03-02T09:25:39;10.07;;;7.50;;
23232;SDS011;11785;49.500;8.288;2024-03-02T09:28:05;13.73;;;7.82;;
23232;SDS011;11785;49.500;8.288;2024-03-02T09:30:32;18.30;;;8.02;;
23232;SDS011;11785;49.500;8.288;2024-03-02T09:32:57;11.50;;;8.32;;
23232;SDS011;11785;49.500;8.288;2024-03-02T09:35:23;10.38;;;7.50;;
23232;SDS011;11785;49.500;8.288;2024-03-02T09:37:49;11.55;;;8.05;;
23232;SDS011;11785;49.500;8.288;2024-03-02T09:40:14;9.13;;;6.28;;
23232;SDS011;11785;49.500;8.288;2024-03-02T09:42:41;9.93;;;7.85;;
23232;SDS011;11785;49.500;8.288;2024-03-02T09:45:08;9.40;;;7.25;;
23232;SDS011;11785;49.500;8.288;2024-03-02T09:47:34;9.98;;;6.93;;
23232;SDS011;11785;49.500;8.288;2024-03-02T09:50:00;11.50;;;7.05;;
23232;SDS011;11785;49.500;8.288;2024-03-02T09:52:26;9.82;;;6.97;;
23232;SDS011;11785;49.500;8.288;2024-03-02T09:54:53;11.32;;;6.57;;
23232;SDS011;11785;49.500;8.288;2024-03-02T09:57:18;10.02;;;6.15;;
23232;SDS011;11785;49.500;8.288;2024-03-02T09:59:44;10.98;;;7.18;;
23232;SDS011;11785;49.500;8.288;2024-03-02T10:02:10;10.95;;;6.35;;
23232;SDS011;11785;49.500;8.288;2024-03-02T10:04:36;7.03;;;5.40;;
23232;SDS011;11785;49.500;8.288;2024-03-02T10:09:44;11.10;;;5.88;;
23232;SDS011;11785;49.500;8.288;2024-03-02T10:12:11;8.98;;;5.68;;
23232;SDS011;11785;49.500;8.288;2024-03-02T10:14:38;6.40;;;5.43;;
23232;SDS011;11785;49.500;8.288;2024-03-02T10:17:05;8.98;;;6.10;;
23232;SDS011;11785;49.500;8.288;2024-03-02T10:19:32;8.05;;;5.75;;
23232;SDS011;11785;49.500;8.288;2024-03-02T10:21:59;14.00;;;6.55;;
23232;SDS011;11785;49.500;8.288;2024-03-02T10:24:26;7.63;;;6.03;;
23232;SDS011;11785;49.500;8.288;2024-03-02T10:26:52;8.93;;;5.60;;
23232;SDS011;11785;49.500;8.288;2024-03-02T10:29:18;7.88;;;5.88;;
23232;SDS011;11785;49.500;8.288;2024-03-02T10:31:44;8.52;;;6.03;;
23232;SDS011;11785;49.500;8.288;2024-03-02T10:34:11;7.93;;;5.65;;
23232;SDS011;11785;49.500;8.288;2024-03-02T10:36:42;7.47;;;5.57;;
23232;SDS011;11785;49.500;8.288;2024-03-02T10:39:08;7.55;;;4.85;;
23232;SDS011;11785;49.500;8.288;2024-03-02T10:41:35;7.20;;;4.88;;
23232;SDS011;11785;49.500;8.288;2024-03-02T10:44:02;5.88;;;4.78;;
23232;SDS011;11785;49.500;8.288;2024-03-02T10:46:29;5.97;;;4.43;;
23232;SDS011;11785;49.500;8.288;2024-03-02T10:48:59;7.95;;;4.13;;
23232;SDS011;11785;49.500;8.288;2024-03-02T10:51:26;7.22;;;5.30;;
23232;SDS011;11785;49.500;8.288;2024-03-02T10:53:53;8.45;;;6.05;;
23232;SDS011;11785;49.500;8.288;2024-03-02T10:56:31;6.75;;;5.13;;
23232;SDS011;11785;49.500;8.288;2024-03-02T10:59:01;7.20;;;5.60;;
23232;SDS011;11785;49.500;8.288;2024-03-02T11:01:47;7.28;;;5.15;;
23232;SDS011;11785;49.500;8.288;2024-03-02T11:04:15;7.97;;;5.30;;
23232;SDS011;11785;49.500;8.288;2024-03-02T11:06:49;7.22;;;5.22;;
23232;SDS011;11785;49.500;8.288;2024-03-02T11:09:15;7.82;;;4.90;;
23232;SDS011;11785;49.500;8.288;2024-03-02T11:11:49;6.95;;;4.97;;
23232;SDS011;11785;49.500;8.288;2024-03-02T11:14:25;8.90;;;4.97;;
23232;SDS011;11785;49.500;8.288;2024-03-02T11:16:50;6.78;;;4.90;;
23232;SDS011;11785;49.500;8.288;2024-03-02T11:19:17;6.05;;;4.70;;
23232;SDS011;11785;49.500;8.288;2024-03-02T11:21:44;11.43;;;5.35;;
23232;SDS011;11785;49.500;8.288;2024-03-02T11:26:52;8.35;;;5.10;;
23232;SDS011;11785;49.500;8.288;2024-03-02T11:32:05;8.18;;;4.57;;
23232;SDS011;11785;49.500;8.288;2024-03-02T11:37:10;7.28;;;4.28;;
23232;SDS011;11785;49.500;8.288;2024-03-02T11:39:37;6.47;;;4.20;;
23232;SDS011;11785;49.500;8.288;2024-03-02T11:42:05;4.68;;;3.63;;
23232;SDS011;11785;49.500;8.288;2024-03-02T11:44:34;6.45;;;3.40;;
23232;SDS011;11785;49.500;8.288;2024-03-02T11:47:01;7.55;;;3.97;;
23232;SDS011;11785;49.500;8.288;2024-03-02T11:49:40;5.60;;;3.85;;
23232;SDS011;11785;49.500;8.288;2024-03-02T11:52:08;5.93;;;3.55;;
23232;SDS011;11785;49.500;8.288;2024-03-02T11:54:36;7.18;;;3.90;;
23232;SDS011;11785;49.500;8.288;2024-03-02T11:57:07;6.28;;;3.47;;
23232;SDS011;11785;49.500;8.288;2024-03-02T11:59:33;5.82;;;3.55;;
23232;SDS011;11785;49.500;8.288;2024-03-02T12:01:59;6.32;;;4.15;;
23232;SDS011;11785;49.500;8.288;2024-03-02T12:04:25;5.47;;;3.20;;
23232;SDS011;11785;49.500;8.288;2024-03-02T12:07:01;5.65;;;3.33;;
23232;SDS011;11785;49.500;8.288;2024-03-02T12:09:27;5.18;;;3.53;;
23232;SDS011;11785;49.500;8.288;2024-03-02T12:12:08;3.78;;;2.88;;
23232;SDS011;11785;49.500;8.288;2024-03-02T12:14:36;3.47;;;2.60;;
23232;SDS011;11785;49.500;8.288;2024-03-02T12:17:03;7.55;;;3.95;;
23232;SDS011;11785;49.500;8.288;2024-03-02T12:19:30;4.35;;;3.17;;
23232;SDS011;11785;49.500;8.288;2024-03-02T12:21:56;5.47;;;3.53;;
23232;SDS011;11785;49.500;8.288;2024-03-02T12:24:23;6.35;;;2.88;;
23232;SDS011;11785;49.500;8.288;2024-03-02T12:26:50;7.03;;;3.20;;
23232;SDS011;11785;49.500;8.288;2024-03-02T12:29:16;3.63;;;2.95;;
23232;SDS011;11785;49.500;8.288;2024-03-02T12:31:44;3.70;;;2.80;;
23232;SDS011;11785;49.500;8.288;2024-03-02T12:34:13;4.03;;;2.78;;
23232;SDS011;11785;49.500;8.288;2024-03-02T12:36:40;5.20;;;3.40;;
23232;SDS011;11785;49.500;8.288;2024-03-02T12:39:07;4.40;;;2.85;;
23232;SDS011;11785;49.500;8.288;2024-03-02T12:41:36;3.78;;;2.45;;
23232;SDS011;11785;49.500;8.288;2024-03-02T12:44:05;7.65;;;2.70;;
23232;SDS011;11785;49.500;8.288;2024-03-02T12:46:31;5.40;;;3.00;;
23232;SDS011;11785;49.500;8.288;2024-03-02T12:48:57;3.42;;;2.78;;
23232;SDS011;11785;49.500;8.288;2024-03-02T12:51:24;6.95;;;3.17;;
23232;SDS011;11785;49.500;8.288;2024-03-02T12:53:56;5.80;;;2.58;;
23232;SDS011;11785;49.500;8.288;2024-03-02T12:56:23;4.65;;;3.08;;
23232;SDS011;11785;49.500;8.288;2024-03-02T12:58:59;2.97;;;2.53;;
23232;SDS011;11785;49.500;8.288;2024-03-02T13:01:24;2.97;;;2.40;;
23232;SDS011;11785;49.500;8.288;2024-03-02T13:03:51;2.47;;;2.05;;
23232;SDS011;11785;49.500;8.288;2024-03-02T13:06:17;4.55;;;2.10;;
23232;SDS011;11785;49.500;8.288;2024-03-02T13:08:45;3.13;;;2.20;;
23232;SDS011;11785;49.500;8.288;2024-03-02T13:11:11;3.03;;;2.10;;
23232;SDS011;11785;49.500;8.288;2024-03-02T13:13:38;3.30;;;2.33;;
23232;SDS011;11785;49.500;8.288;2024-03-02T13:16:08;3.15;;;2.03;;
23232;SDS011;11785;49.500;8.288;2024-03-02T13:18:35;2.13;;;1.83;;
23232;SDS011;11785;49.500;8.288;2024-03-02T13:21:00;2.55;;;1.48;;
23232;SDS011;11785;49.500;8.288;2024-03-02T13:23:26;2.58;;;1.70;;
23232;SDS011;11785;49.500;8.288;2024-03-02T13:25:51;1.95;;;1.10;;
23232;SDS011;11785;49.500;8.288;2024-03-02T13:28:17;1.00;;;0.90;;
23232;SDS011;11785;49.500;8.288;2024-03-02T13:30:43;2.50;;;1.30;;
23232;SDS011;11785;49.500;8.288;2024-03-02T13:33:08;2.58;;;1.00;;
23232;SDS011;11785;49.500;8.288;2024-03-02T13:35:34;2.20;;;1.30;;
23232;SDS011;11785;49.500;8.288;2024-03-02T13:37:59;1.38;;;1.25;;
23232;SDS011;11785;49.500;8.288;2024-03-02T13:40:25;1.13;;;0.80;;
23232;SDS011;11785;49.500;8.288;2024-03-02T13:42:51;0.68;;;0.60;;
23232;SDS011;11785;49.500;8.288;2024-03-02T13:45:18;0.55;;;0.55;;
23232;SDS011;11785;49.500;8.288;2024-03-02T13:47:44;0.93;;;0.50;;
23232;SDS011;11785;49.500;8.288;2024-03-02T13:50:09;0.80;;;0.57;;
23232;SDS011;11785;49.500;8.288;2024-03-02T13:52:35;0.77;;;0.50;;
23232;SDS011;11785;49.500;8.288;2024-03-02T13:55:01;0.38;;;0.30;;
23232;SDS011;11785;49.500;8.288;2024-03-02T13:57:27;0.70;;;0.52;;
23232;SDS011;11785;49.500;8.288;2024-03-02T13:59:53;0.55;;;0.55;;
23232;SDS011;11785;49.500;8.288;2024-03-02T14:02:19;1.92;;;0.70;;
23232;SDS011;11785;49.500;8.288;2024-03-02T14:04:45;0.75;;;0.75;;
23232;SDS011;11785;49.500;8.288;2024-03-02T14:07:11;0.90;;;0.90;;
23232;SDS011;11785;49.500;8.288;2024-03-02T14:09:37;1.35;;;0.77;;
23232;SDS011;11785;49.500;8.288;2024-03-02T14:12:02;2.00;;;0.57;;
23232;SDS011;11785;49.500;8.288;2024-03-02T14:14:29;0.80;;;0.80;;
23232;SDS011;11785;49.500;8.288;2024-03-02T14:16:54;2.25;;;1.00;;
23232;SDS011;11785;49.500;8.288;2024-03-02T14:19:30;1.13;;;1.02;;
23232;SDS011;11785;49.500;8.288;2024-03-02T14:21:56;1.25;;;1.10;;
23232;SDS011;11785;49.500;8.288;2024-03-02T14:24:22;2.35;;;1.02;;
23232;SDS011;11785;49.500;8.288;2024-03-02T14:26:51;1.27;;;1.08;;
23232;SDS011;11785;49.500;8.288;2024-03-02T14:29:18;0.85;;;0.75;;
23232;SDS011;11785;49.500;8.288;2024-03-02T14:31:43;0.98;;;0.88;;
23232;SDS011;11785;49.500;8.288;2024-03-02T14:34:12;1.42;;;1.13;;
23232;SDS011;11785;49.500;8.288;2024-03-02T14:36:38;1.45;;;1.27;;
23232;SDS011;11785;49.500;8.288;2024-03-02T14:39:04;1.58;;;1.30;;
23232;SDS011;11785;49.500;8.288;2024-03-02T14:41:34;1.63;;;1.40;;